sensor_id;sensor_type;location;lat;lon;timestamp;temperature;humidity
67131;HTU21D;54051;53.464;49.532;2022-11-25T00:01:04;1.97;84.10
67131;HTU21D;54051;53.464;49.532;2022-11-25T00:03:30;2.03;83.58
67131;HTU21D;54051;53.464;49.532;2022-11-25T00:05:56;1.99;83.42
67131;HTU21D;54051;53.464;49.532;2022-11-25T00:08:22;1.93;83.83
67131;HTU21D;54051;53.464;49.532;2022-11-25T00:10:48;1.91;84.20
67131;HTU21D;54051;53.464;49.532;2022-11-25T00:13:14;1.91;84.61
67131;HTU21D;54051;53.464;49.532;2022-11-25T00:15:40;1.94;84.36
67131;HTU21D;54051;53.464;49.532;2022-11-25T00:18:06;1.99;83.68
67131;HTU21D;54051;53.464;49.532;2022-11-25T00:20:32;2.01;83.66
67131;HTU21D;54051;53.464;49.532;2022-11-25T00:22:58;2.00;83.31
67131;HTU21D;54051;53.464;49.532;2022-11-25T00:25:24;2.03;83.05
67131;HTU21D;54051;53.464;49.532;2022-11-25T00:27:51;1.99;82.97
67131;HTU21D;54051;53.464;49.532;2022-11-25T00:30:18;1.97;83.16
67131;HTU21D;54051;53.464;49.532;2022-11-25T00:32:44;1.91;83.88
67131;HTU21D;54051;53.464;49.532;2022-11-25T00:35:10;1.81;84.02
67131;HTU21D;54051;53.464;49.532;2022-11-25T00:37:35;1.87;84.14
67131;HTU21D;54051;53.464;49.532;2022-11-25T00:40:01;1.95;83.82
67131;HTU21D;54051;53.464;49.532;2022-11-25T00:42:27;1.92;83.78
67131;HTU21D;54051;53.464;49.532;2022-11-25T00:45:12;1.92;83.84
67131;HTU21D;54051;53.464;49.532;2022-11-25T00:47:37;1.86;83.49
67131;HTU21D;54051;53.464;49.532;2022-11-25T00:50:04;1.76;84.13
67131;HTU21D;54051;53.464;49.532;2022-11-25T00:52:30;1.67;84.93
67131;HTU21D;54051;53.464;49.532;2022-11-25T00:55:02;1.56;85.35
67131;HTU21D;54051;53.464;49.532;2022-11-25T00:57:28;1.51;86.27
67131;HTU21D;54051;53.464;49.532;2022-11-25T00:59:54;1.56;86.15
67131;HTU21D;54051;53.464;49.532;2022-11-25T01:02:21;1.64;85.93
67131;HTU21D;54051;53.464;49.532;2022-11-25T01:04:47;1.72;85.55
67131;HTU21D;54051;53.464;49.532;2022-11-25T01:07:13;1.65;85.84
67131;HTU21D;54051;53.464;49.532;2022-11-25T01:09:39;1.64;85.89
67131;HTU21D;54051;53.464;49.532;2022-11-25T01:12:05;1.75;85.69
67131;HTU21D;54051;53.464;49.532;2022-11-25T01:14:31;1.82;85.06
67131;HTU21D;54051;53.464;49.532;2022-11-25T01:16:58;1.78;85.08
67131;HTU21D;54051;53.464;49.532;2022-11-25T01:19:24;1.83;85.35
67131;HTU21D;54051;53.464;49.532;2022-11-25T01:21:50;1.88;85.18
67131;HTU21D;54051;53.464;49.532;2022-11-25T01:24:16;1.85;85.26
67131;HTU21D;54051;53.464;49.532;2022-11-25T01:26:43;1.86;85.13
67131;HTU21D;54051;53.464;49.532;2022-11-25T01:29:12;1.88;85.23
67131;HTU21D;54051;53.464;49.532;2022-11-25T01:31:39;1.91;85.33
67131;HTU21D;54051;53.464;49.532;2022-11-25T01:34:18;1.90;84.98
67131;HTU21D;54051;53.464;49.532;2022-11-25T01:36:45;1.82;85.30
67131;HTU21D;54051;53.464;49.532;2022-11-25T01:39:21;1.66;85.85
67131;HTU21D;54051;53.464;49.532;2022-11-25T01:41:48;1.66;86.86
67131;HTU21D;54051;53.464;49.532;2022-11-25T01:44:20;1.73;86.38
67131;HTU21D;54051;53.464;49.532;2022-11-25T01:49:29;1.77;85.82
67131;HTU21D;54051;53.464;49.532;2022-11-25T01:52:19;1.78;85.69
67131;HTU21D;54051;53.464;49.532;2022-11-25T01:55:19;1.75;85.93
67131;HTU21D;54051;53.464;49.532;2022-11-25T01:57:52;1.72;85.37
67131;HTU21D;54051;53.464;49.532;2022-11-25T02:00:20;1.71;85.54
67131;HTU21D;54051;53.464;49.532;2022-11-25T02:02:48;1.64;85.22
67131;HTU21D;54051;53.464;49.532;2022-11-25T02:05:20;1.60;85.31
67131;HTU21D;54051;53.464;49.532;2022-11-25T02:07:48;1.54;85.38
67131;HTU21D;54051;53.464;49.532;2022-11-25T02:10:20;1.56;85.93
67131;HTU21D;54051;53.464;49.532;2022-11-25T02:12:48;1.54;85.29
67131;HTU21D;54051;53.464;49.532;2022-11-25T02:15:40;1.50;85.03
67131;HTU21D;54051;53.464;49.532;2022-11-25T02:20:43;1.55;85.79
67131;HTU21D;54051;53.464;49.532;2022-11-25T02:25:58;1.60;84.58
67131;HTU21D;54051;53.464;49.532;2022-11-25T02:28:49;1.54;84.79
67131;HTU21D;54051;53.464;49.532;2022-11-25T02:33:57;1.55;84.86
67131;HTU21D;54051;53.464;49.532;2022-11-25T02:36:23;1.57;85.25
67131;HTU21D;54051;53.464;49.532;2022-11-25T02:41:26;1.63;85.20
67131;HTU21D;54051;53.464;49.532;2022-11-25T02:46:41;1.60;84.61
67131;HTU21D;54051;53.464;49.532;2022-11-25T02:49:07;1.53;85.08
67131;HTU21D;54051;53.464;49.532;2022-11-25T02:51:34;1.61;85.43
67131;HTU21D;54051;53.464;49.532;2022-11-25T02:54:00;1.62;84.69
67131;HTU21D;54051;53.464;49.532;2022-11-25T02:56:30;1.58;84.81
67131;HTU21D;54051;53.464;49.532;2022-11-25T02:58:56;1.64;84.54
67131;HTU21D;54051;53.464;49.532;2022-11-25T03:01:22;1.66;84.81
67131;HTU21D;54051;53.464;49.532;2022-11-25T03:03:49;1.77;84.55
67131;HTU21D;54051;53.464;49.532;2022-11-25T03:06:15;1.86;84.03
67131;HTU21D;54051;53.464;49.532;2022-11-25T03:08:41;1.91;83.74
67131;HTU21D;54051;53.464;49.532;2022-11-25T03:11:07;1.96;84.07
67131;HTU21D;54051;53.464;49.532;2022-11-25T03:13:33;1.95;83.26
67131;HTU21D;54051;53.464;49.532;2022-11-25T03:15:59;1.98;83.50
67131;HTU21D;54051;53.464;49.532;2022-11-25T03:18:25;1.99;83.61
67131;HTU21D;54051;53.464;49.532;2022-11-25T03:20:52;2.02;83.93
67131;HTU21D;54051;53.464;49.532;2022-11-25T03:23:19;2.01;83.79
67131;HTU21D;54051;53.464;49.532;2022-11-25T03:25:45;2.08;83.69
67131;HTU21D;54051;53.464;49.532;2022-11-25T03:28:11;2.11;83.50
67131;HTU21D;54051;53.464;49.532;2022-11-25T03:30:37;2.13;82.92
67131;HTU21D;54051;53.464;49.532;2022-11-25T03:33:03;2.00;83.65
67131;HTU21D;54051;53.464;49.532;2022-11-25T03:35:29;1.96;83.72
67131;HTU21D;54051;53.464;49.532;2022-11-25T03:37:55;1.92;83.85
67131;HTU21D;54051;53.464;49.532;2022-11-25T03:40:21;1.94;83.99
67131;HTU21D;54051;53.464;49.532;2022-11-25T03:42:47;1.84;84.37
67131;HTU21D;54051;53.464;49.532;2022-11-25T03:45:14;1.85;84.48
67131;HTU21D;54051;53.464;49.532;2022-11-25T03:47:42;1.80;84.93
67131;HTU21D;54051;53.464;49.532;2022-11-25T03:50:09;1.68;85.16
67131;HTU21D;54051;53.464;49.532;2022-11-25T03:52:35;1.64;86.26
67131;HTU21D;54051;53.464;49.532;2022-11-25T03:55:02;1.52;86.42
67131;HTU21D;54051;53.464;49.532;2022-11-25T03:57:28;1.53;86.61
67131;HTU21D;54051;53.464;49.532;2022-11-25T03:59:54;1.54;86.64
67131;HTU21D;54051;53.464;49.532;2022-11-25T04:02:19;1.51;86.89
67131;HTU21D;54051;53.464;49.532;2022-11-25T04:04:45;1.41;87.35
67131;HTU21D;54051;53.464;49.532;2022-11-25T04:07:11;1.45;88.09
67131;HTU21D;54051;53.464;49.532;2022-11-25T04:09:37;1.51;87.47
67131;HTU21D;54051;53.464;49.532;2022-11-25T04:12:03;1.48;87.93
67131;HTU21D;54051;53.464;49.532;2022-11-25T04:14:48;1.37;88.33
67131;HTU21D;54051;53.464;49.532;2022-11-25T04:17:14;1.39;88.17
67131;HTU21D;54051;53.464;49.532;2022-11-25T04:19:40;1.34;88.32
67131;HTU21D;54051;53.464;49.532;2022-11-25T04:22:06;1.43;87.60
67131;HTU21D;54051;53.464;49.532;2022-11-25T04:24:32;1.45;87.30
67131;HTU21D;54051;53.464;49.532;2022-11-25T04:26:58;1.33;87.65
67131;HTU21D;54051;53.464;49.532;2022-11-25T04:29:24;1.32;88.17
67131;HTU21D;54051;53.464;49.532;2022-11-25T04:31:50;1.38;88.29
67131;HTU21D;54051;53.464;49.532;2022-11-25T04:34:16;1.36;87.79
67131;HTU21D;54051;53.464;49.532;2022-11-25T04:36:42;1.45;87.49
67131;HTU21D;54051;53.464;49.532;2022-11-25T04:39:08;1.49;87.66
67131;HTU21D;54051;53.464;49.532;2022-11-25T04:41:34;1.57;87.01
67131;HTU21D;54051;53.464;49.532;2022-11-25T04:44:00;1.53;86.08
67131;HTU21D;54051;53.464;49.532;2022-11-25T04:46:32;1.52;86.64
67131;HTU21D;54051;53.464;49.532;2022-11-25T04:48:58;1.50;86.78
67131;HTU21D;54051;53.464;49.532;2022-11-25T04:51:24;1.51;86.59
67131;HTU21D;54051;53.464;49.532;2022-11-25T04:53:50;1.50;86.45
67131;HTU21D;54051;53.464;49.532;2022-11-25T04:56:18;1.41;86.46
67131;HTU21D;54051;53.464;49.532;2022-11-25T04:58:44;1.37;86.93
67131;HTU21D;54051;53.464;49.532;2022-11-25T05:01:29;1.39;87.55
67131;HTU21D;54051;53.464;49.532;2022-11-25T05:03:55;1.43;87.04
67131;HTU21D;54051;53.464;49.532;2022-11-25T05:06:21;1.39;86.64
67131;HTU21D;54051;53.464;49.532;2022-11-25T05:08:48;1.38;87.29
67131;HTU21D;54051;53.464;49.532;2022-11-25T05:11:14;1.41;86.81
67131;HTU21D;54051;53.464;49.532;2022-11-25T05:13:40;1.43;87.17
67131;HTU21D;54051;53.464;49.532;2022-11-25T05:16:06;1.48;87.24
67131;HTU21D;54051;53.464;49.532;2022-11-25T05:18:33;1.63;86.81
67131;HTU21D;54051;53.464;49.532;2022-11-25T05:21:03;1.71;86.40
67131;HTU21D;54051;53.464;49.532;2022-11-25T05:23:29;1.80;85.74
67131;HTU21D;54051;53.464;49.532;2022-11-25T05:26:00;1.79;85.07
67131;HTU21D;54051;53.464;49.532;2022-11-25T05:28:26;1.81;85.20
67131;HTU21D;54051;53.464;49.532;2022-11-25T05:30:52;1.88;85.54
67131;HTU21D;54051;53.464;49.532;2022-11-25T05:33:18;1.90;84.30
67131;HTU21D;54051;53.464;49.532;2022-11-25T05:35:59;1.87;84.76
67131;HTU21D;54051;53.464;49.532;2022-11-25T05:38:26;1.93;84.13
67131;HTU21D;54051;53.464;49.532;2022-11-25T05:40:53;1.92;84.32
67131;HTU21D;54051;53.464;49.532;2022-11-25T05:43:24;2.02;84.33
67131;HTU21D;54051;53.464;49.532;2022-11-25T05:45:50;2.13;84.23
67131;HTU21D;54051;53.464;49.532;2022-11-25T05:48:16;2.20;83.76
67131;HTU21D;54051;53.464;49.532;2022-11-25T05:50:42;2.14;83.65
67131;HTU21D;54051;53.464;49.532;2022-11-25T05:53:08;2.08;83.68
67131;HTU21D;54051;53.464;49.532;2022-11-25T05:55:34;2.14;83.65
67131;HTU21D;54051;53.464;49.532;2022-11-25T05:58:00;2.28;83.38
67131;HTU21D;54051;53.464;49.532;2022-11-25T06:00:27;2.37;82.60
67131;HTU21D;54051;53.464;49.532;2022-11-25T06:02:53;2.38;82.69
67131;HTU21D;54051;53.464;49.532;2022-11-25T06:05:19;2.34;82.58
67131;HTU21D;54051;53.464;49.532;2022-11-25T06:07:45;2.27;82.94
67131;HTU21D;54051;53.464;49.532;2022-11-25T06:10:12;2.27;82.71
67131;HTU21D;54051;53.464;49.532;2022-11-25T06:12:38;2.27;82.97
67131;HTU21D;54051;53.464;49.532;2022-11-25T06:15:04;2.30;82.88
67131;HTU21D;54051;53.464;49.532;2022-11-25T06:17:31;2.27;82.95
67131;HTU21D;54051;53.464;49.532;2022-11-25T06:19:56;2.27;83.02
67131;HTU21D;54051;53.464;49.532;2022-11-25T06:22:22;2.26;82.58
67131;HTU21D;54051;53.464;49.532;2022-11-25T06:24:48;2.21;83.39
67131;HTU21D;54051;53.464;49.532;2022-11-25T06:27:14;2.22;84.02
67131;HTU21D;54051;53.464;49.532;2022-11-25T06:29:40;2.32;83.93
67131;HTU21D;54051;53.464;49.532;2022-11-25T06:32:06;2.43;83.22
67131;HTU21D;54051;53.464;49.532;2022-11-25T06:34:32;2.38;83.47
67131;HTU21D;54051;53.464;49.532;2022-11-25T06:36:58;2.47;83.38
67131;HTU21D;54051;53.464;49.532;2022-11-25T06:39:24;2.54;83.04
67131;HTU21D;54051;53.464;49.532;2022-11-25T06:41:50;2.53;82.71
67131;HTU21D;54051;53.464;49.532;2022-11-25T06:44:16;2.53;82.84
67131;HTU21D;54051;53.464;49.532;2022-11-25T06:46:42;2.53;83.03
67131;HTU21D;54051;53.464;49.532;2022-11-25T06:49:08;2.49;83.00
67131;HTU21D;54051;53.464;49.532;2022-11-25T06:51:34;2.56;82.72
67131;HTU21D;54051;53.464;49.532;2022-11-25T06:54:00;2.59;82.84
67131;HTU21D;54051;53.464;49.532;2022-11-25T06:56:27;2.59;82.37
67131;HTU21D;54051;53.464;49.532;2022-11-25T06:58:54;2.53;82.96
67131;HTU21D;54051;53.464;49.532;2022-11-25T07:01:26;2.64;82.97
67131;HTU21D;54051;53.464;49.532;2022-11-25T07:03:54;2.68;82.69
67131;HTU21D;54051;53.464;49.532;2022-11-25T07:06:21;2.73;82.83
67131;HTU21D;54051;53.464;49.532;2022-11-25T07:08:48;2.87;82.04
67131;HTU21D;54051;53.464;49.532;2022-11-25T07:11:29;2.85;81.70
67131;HTU21D;54051;53.464;49.532;2022-11-25T07:14:03;2.87;81.73
67131;HTU21D;54051;53.464;49.532;2022-11-25T07:16:31;2.94;81.90
67131;HTU21D;54051;53.464;49.532;2022-11-25T07:18:58;2.98;82.09
67131;HTU21D;54051;53.464;49.532;2022-11-25T07:21:27;2.99;82.22
67131;HTU21D;54051;53.464;49.532;2022-11-25T07:23:55;2.96;82.13
67131;HTU21D;54051;53.464;49.532;2022-11-25T07:26:23;2.96;81.55
67131;HTU21D;54051;53.464;49.532;2022-11-25T07:28:51;2.91;81.91
67131;HTU21D;54051;53.464;49.532;2022-11-25T07:31:20;2.86;82.45
67131;HTU21D;54051;53.464;49.532;2022-11-25T07:33:46;2.84;82.81
67131;HTU21D;54051;53.464;49.532;2022-11-25T07:36:13;2.81;83.39
67131;HTU21D;54051;53.464;49.532;2022-11-25T07:38:40;2.84;83.13
67131;HTU21D;54051;53.464;49.532;2022-11-25T07:41:12;2.90;83.03
67131;HTU21D;54051;53.464;49.532;2022-11-25T07:43:39;2.84;83.26
67131;HTU21D;54051;53.464;49.532;2022-11-25T07:46:18;2.84;83.31
67131;HTU21D;54051;53.464;49.532;2022-11-25T07:48:45;2.82;83.28
67131;HTU21D;54051;53.464;49.532;2022-11-25T07:51:17;2.81;83.41
67131;HTU21D;54051;53.464;49.532;2022-11-25T07:53:44;2.81;83.74
67131;HTU21D;54051;53.464;49.532;2022-11-25T07:56:11;2.82;83.95
67131;HTU21D;54051;53.464;49.532;2022-11-25T07:58:37;2.94;84.02
67131;HTU21D;54051;53.464;49.532;2022-11-25T08:01:03;3.05;83.80
67131;HTU21D;54051;53.464;49.532;2022-11-25T08:03:34;3.12;82.94
67131;HTU21D;54051;53.464;49.532;2022-11-25T08:06:05;3.00;83.12
67131;HTU21D;54051;53.464;49.532;2022-11-25T08:08:32;2.97;83.84
67131;HTU21D;54051;53.464;49.532;2022-11-25T08:10:58;2.94;83.68
67131;HTU21D;54051;53.464;49.532;2022-11-25T08:13:25;2.82;84.11
67131;HTU21D;54051;53.464;49.532;2022-11-25T08:15:52;2.76;84.55
67131;HTU21D;54051;53.464;49.532;2022-11-25T08:18:18;2.76;84.47
67131;HTU21D;54051;53.464;49.532;2022-11-25T08:20:44;2.86;84.83
67131;HTU21D;54051;53.464;49.532;2022-11-25T08:23:10;2.89;83.97
67131;HTU21D;54051;53.464;49.532;2022-11-25T08:25:40;2.81;84.07
67131;HTU21D;54051;53.464;49.532;2022-11-25T08:28:07;2.75;84.45
67131;HTU21D;54051;53.464;49.532;2022-11-25T08:30:33;2.84;85.00
67131;HTU21D;54051;53.464;49.532;2022-11-25T08:33:00;2.89;84.47
67131;HTU21D;54051;53.464;49.532;2022-11-25T08:35:26;2.86;84.35
67131;HTU21D;54051;53.464;49.532;2022-11-25T08:37:52;2.84;83.98
67131;HTU21D;54051;53.464;49.532;2022-11-25T08:40:18;2.82;84.33
67131;HTU21D;54051;53.464;49.532;2022-11-25T08:42:44;2.89;84.82
67131;HTU21D;54051;53.464;49.532;2022-11-25T08:45:10;3.01;84.90
67131;HTU21D;54051;53.464;49.532;2022-11-25T08:47:37;3.12;83.41
67131;HTU21D;54051;53.464;49.532;2022-11-25T08:50:08;3.02;83.68
67131;HTU21D;54051;53.464;49.532;2022-11-25T08:52:34;2.97;84.61
67131;HTU21D;54051;53.464;49.532;2022-11-25T08:55:00;3.02;84.52
67131;HTU21D;54051;53.464;49.532;2022-11-25T08:57:27;3.14;83.93
67131;HTU21D;54051;53.464;49.532;2022-11-25T08:59:53;3.09;83.64
67131;HTU21D;54051;53.464;49.532;2022-11-25T09:02:19;3.19;84.03
67131;HTU21D;54051;53.464;49.532;2022-11-25T09:04:45;3.24;83.00
67131;HTU21D;54051;53.464;49.532;2022-11-25T09:07:11;3.21;83.08
67131;HTU21D;54051;53.464;49.532;2022-11-25T09:09:37;3.12;82.78
67131;HTU21D;54051;53.464;49.532;2022-11-25T09:12:03;2.98;84.22
67131;HTU21D;54051;53.464;49.532;2022-11-25T09:14:29;3.02;84.81
67131;HTU21D;54051;53.464;49.532;2022-11-25T09:16:55;3.16;85.06
67131;HTU21D;54051;53.464;49.532;2022-11-25T09:19:21;3.27;84.34
67131;HTU21D;54051;53.464;49.532;2022-11-25T09:21:48;3.24;83.58
67131;HTU21D;54051;53.464;49.532;2022-11-25T09:24:14;3.12;83.79
67131;HTU21D;54051;53.464;49.532;2022-11-25T09:26:40;2.97;84.40
67131;HTU21D;54051;53.464;49.532;2022-11-25T09:29:07;2.94;85.22
67131;HTU21D;54051;53.464;49.532;2022-11-25T09:31:33;3.18;84.28
67131;HTU21D;54051;53.464;49.532;2022-11-25T09:33:59;3.21;83.44
67131;HTU21D;54051;53.464;49.532;2022-11-25T09:36:25;3.13;83.55
67131;HTU21D;54051;53.464;49.532;2022-11-25T09:38:51;3.15;84.17
67131;HTU21D;54051;53.464;49.532;2022-11-25T09:41:45;3.31;84.08
67131;HTU21D;54051;53.464;49.532;2022-11-25T09:44:56;3.41;82.92
67131;HTU21D;54051;53.464;49.532;2022-11-25T09:48:04;3.40;83.70
67131;HTU21D;54051;53.464;49.532;2022-11-25T09:53:44;3.55;82.87
67131;HTU21D;54051;53.464;49.532;2022-11-25T09:56:34;3.55;83.40
67131;HTU21D;54051;53.464;49.532;2022-11-25T09:59:12;3.71;82.81
67131;HTU21D;54051;53.464;49.532;2022-11-25T10:01:49;3.90;81.98
67131;HTU21D;54051;53.464;49.532;2022-11-25T10:04:31;4.06;80.95
67131;HTU21D;54051;53.464;49.532;2022-11-25T10:07:00;4.21;80.34
67131;HTU21D;54051;53.464;49.532;2022-11-25T10:09:30;4.27;80.07
67131;HTU21D;54051;53.464;49.532;2022-11-25T10:12:27;3.95;80.45
67131;HTU21D;54051;53.464;49.532;2022-11-25T10:14:53;3.69;81.14
67131;HTU21D;54051;53.464;49.532;2022-11-25T10:17:45;3.46;82.68
67131;HTU21D;54051;53.464;49.532;2022-11-25T10:22:53;3.35;83.36
67131;HTU21D;54051;53.464;49.532;2022-11-25T10:25:23;3.41;83.95
67131;HTU21D;54051;53.464;49.532;2022-11-25T10:33:18;3.56;83.60
67131;HTU21D;54051;53.464;49.532;2022-11-25T10:35:50;3.62;83.35
67131;HTU21D;54051;53.464;49.532;2022-11-25T10:42:08;3.30;85.08
67131;HTU21D;54051;53.464;49.532;2022-11-25T10:44:39;3.26;85.37
67131;HTU21D;54051;53.464;49.532;2022-11-25T10:55:28;2.93;86.36
67131;HTU21D;54051;53.464;49.532;2022-11-25T10:57:54;2.97;86.69
67131;HTU21D;54051;53.464;49.532;2022-11-25T11:00:33;3.10;86.52
67131;HTU21D;54051;53.464;49.532;2022-11-25T11:03:24;3.15;86.06
67131;HTU21D;54051;53.464;49.532;2022-11-25T11:05:52;3.11;85.73
67131;HTU21D;54051;53.464;49.532;2022-11-25T11:08:22;3.09;85.98
67131;HTU21D;54051;53.464;49.532;2022-11-25T11:13:33;3.15;85.41
67131;HTU21D;54051;53.464;49.532;2022-11-25T11:15:59;3.18;84.92
67131;HTU21D;54051;53.464;49.532;2022-11-25T11:18:43;3.29;84.32
67131;HTU21D;54051;53.464;49.532;2022-11-25T11:21:22;3.24;84.04
67131;HTU21D;54051;53.464;49.532;2022-11-25T11:23:53;3.20;84.65
67131;HTU21D;54051;53.464;49.532;2022-11-25T11:26:32;3.23;84.96
67131;HTU21D;54051;53.464;49.532;2022-11-25T11:31:31;3.18;84.99
67131;HTU21D;54051;53.464;49.532;2022-11-25T11:42:28;3.26;85.26
67131;HTU21D;54051;53.464;49.532;2022-11-25T11:48:03;3.28;84.93
67131;HTU21D;54051;53.464;49.532;2022-11-25T11:53:34;3.38;85.26
67131;HTU21D;54051;53.464;49.532;2022-11-25T11:59:08;3.30;84.91
67131;HTU21D;54051;53.464;49.532;2022-11-25T12:09:50;3.15;85.57
67131;HTU21D;54051;53.464;49.532;2022-11-25T12:12:18;3.10;85.21
67131;HTU21D;54051;53.464;49.532;2022-11-25T12:14:49;3.10;85.74
67131;HTU21D;54051;53.464;49.532;2022-11-25T12:17:22;3.15;85.42
67131;HTU21D;54051;53.464;49.532;2022-11-25T12:20:34;3.11;85.23
67131;HTU21D;54051;53.464;49.532;2022-11-25T12:23:14;3.08;85.67
67131;HTU21D;54051;53.464;49.532;2022-11-25T12:25:41;3.14;85.71
67131;HTU21D;54051;53.464;49.532;2022-11-25T12:28:14;3.16;85.39
67131;HTU21D;54051;53.464;49.532;2022-11-25T12:36:46;3.09;85.26
67131;HTU21D;54051;53.464;49.532;2022-11-25T12:39:38;3.06;85.29
67131;HTU21D;54051;53.464;49.532;2022-11-25T12:42:21;3.08;85.46
67131;HTU21D;54051;53.464;49.532;2022-11-25T12:44:56;3.06;85.69
67131;HTU21D;54051;53.464;49.532;2022-11-25T12:47:24;3.02;85.77
67131;HTU21D;54051;53.464;49.532;2022-11-25T12:49:52;3.03;85.84
67131;HTU21D;54051;53.464;49.532;2022-11-25T12:55:22;3.01;85.58
67131;HTU21D;54051;53.464;49.532;2022-11-25T13:01:00;2.94;85.09
67131;HTU21D;54051;53.464;49.532;2022-11-25T13:15:29;2.88;84.71
67131;HTU21D;54051;53.464;49.532;2022-11-25T13:17:49;2.86;85.11
67131;HTU21D;54051;53.464;49.532;2022-11-25T13:23:07;2.79;85.35
67131;HTU21D;54051;53.464;49.532;2022-11-25T13:25:48;2.78;85.83
67131;HTU21D;54051;53.464;49.532;2022-11-25T13:28:29;2.81;85.87
67131;HTU21D;54051;53.464;49.532;2022-11-25T13:31:17;2.82;85.51
67131;HTU21D;54051;53.464;49.532;2022-11-25T13:36:25;2.78;85.33
67131;HTU21D;54051;53.464;49.532;2022-11-25T13:39:12;2.82;85.09
67131;HTU21D;54051;53.464;49.532;2022-11-25T13:41:45;2.83;85.21
67131;HTU21D;54051;53.464;49.532;2022-11-25T13:44:22;2.82;85.18
67131;HTU21D;54051;53.464;49.532;2022-11-25T13:46:54;2.83;85.21
67131;HTU21D;54051;53.464;49.532;2022-11-25T13:49:26;2.80;85.01
67131;HTU21D;54051;53.464;49.532;2022-11-25T13:52:19;2.78;85.49
67131;HTU21D;54051;53.464;49.532;2022-11-25T13:54:48;2.78;85.64
67131;HTU21D;54051;53.464;49.532;2022-11-25T13:57:34;2.80;85.67
67131;HTU21D;54051;53.464;49.532;2022-11-25T14:00:08;2.80;85.64
67131;HTU21D;54051;53.464;49.532;2022-11-25T14:02:50;2.80;86.07
67131;HTU21D;54051;53.464;49.532;2022-11-25T14:08:29;2.79;85.90
67131;HTU21D;54051;53.464;49.532;2022-11-25T14:20:16;2.81;85.51
67131;HTU21D;54051;53.464;49.532;2022-11-25T14:23:15;2.85;85.12
67131;HTU21D;54051;53.464;49.532;2022-11-25T14:25:54;2.85;84.87
67131;HTU21D;54051;53.464;49.532;2022-11-25T14:30:53;2.93;84.85
67131;HTU21D;54051;53.464;49.532;2022-11-25T14:36:25;2.95;84.74
67131;HTU21D;54051;53.464;49.532;2022-11-25T14:39:02;2.97;84.58
67131;HTU21D;54051;53.464;49.532;2022-11-25T14:41:35;2.97;84.37
67131;HTU21D;54051;53.464;49.532;2022-11-25T14:44:15;3.02;84.70
67131;HTU21D;54051;53.464;49.532;2022-11-25T14:46:53;3.01;84.32
67131;HTU21D;54051;53.464;49.532;2022-11-25T14:49:20;3.01;84.47
67131;HTU21D;54051;53.464;49.532;2022-11-25T14:51:50;3.02;84.59
67131;HTU21D;54051;53.464;49.532;2022-11-25T14:54:19;2.99;84.82
67131;HTU21D;54051;53.464;49.532;2022-11-25T14:56:46;2.94;85.26
67131;HTU21D;54051;53.464;49.532;2022-11-25T14:59:13;2.93;85.56
67131;HTU21D;54051;53.464;49.532;2022-11-25T15:01:51;2.94;85.49
67131;HTU21D;54051;53.464;49.532;2022-11-25T15:04:23;2.95;85.48
67131;HTU21D;54051;53.464;49.532;2022-11-25T15:06:53;2.97;85.78
67131;HTU21D;54051;53.464;49.532;2022-11-25T15:09:25;2.98;85.29
67131;HTU21D;54051;53.464;49.532;2022-11-25T15:11:56;2.94;85.61
67131;HTU21D;54051;53.464;49.532;2022-11-25T15:14:25;2.89;85.91
67131;HTU21D;54051;53.464;49.532;2022-11-25T15:16:52;2.83;86.71
67131;HTU21D;54051;53.464;49.532;2022-11-25T15:19:21;2.82;86.92
67131;HTU21D;54051;53.464;49.532;2022-11-25T15:21:55;2.85;87.24
67131;HTU21D;54051;53.464;49.532;2022-11-25T15:24:25;2.93;87.06
67131;HTU21D;54051;53.464;49.532;2022-11-25T15:26:59;2.95;86.75
67131;HTU21D;54051;53.464;49.532;2022-11-25T15:29:28;3.02;86.80
67131;HTU21D;54051;53.464;49.532;2022-11-25T15:31:57;3.01;86.12
67131;HTU21D;54051;53.464;49.532;2022-11-25T15:34:25;2.98;86.64
67131;HTU21D;54051;53.464;49.532;2022-11-25T15:36:53;2.99;86.43
67131;HTU21D;54051;53.464;49.532;2022-11-25T15:46:55;3.08;86.07
67131;HTU21D;54051;53.464;49.532;2022-11-25T15:49:22;3.05;85.81
67131;HTU21D;54051;53.464;49.532;2022-11-25T15:51:58;3.05;85.83
67131;HTU21D;54051;53.464;49.532;2022-11-25T15:54:28;3.03;85.33
67131;HTU21D;54051;53.464;49.532;2022-11-25T15:56:59;3.08;86.05
67131;HTU21D;54051;53.464;49.532;2022-11-25T16:10:32;2.94;87.01
67131;HTU21D;54051;53.464;49.532;2022-11-25T16:13:29;2.90;87.15
67131;HTU21D;54051;53.464;49.532;2022-11-25T16:18:43;2.83;87.61
67131;HTU21D;54051;53.464;49.532;2022-11-25T16:21:21;2.81;87.44
67131;HTU21D;54051;53.464;49.532;2022-11-25T16:23:53;2.84;87.04
67131;HTU21D;54051;53.464;49.532;2022-11-25T16:26:27;2.87;86.81
67131;HTU21D;54051;53.464;49.532;2022-11-25T16:28:56;2.87;85.91
67131;HTU21D;54051;53.464;49.532;2022-11-25T16:31:23;2.90;86.28
67131;HTU21D;54051;53.464;49.532;2022-11-25T16:33:57;2.86;86.54
67131;HTU21D;54051;53.464;49.532;2022-11-25T16:36:25;2.82;86.97
67131;HTU21D;54051;53.464;49.532;2022-11-25T16:38:51;2.82;87.28
67131;HTU21D;54051;53.464;49.532;2022-11-25T16:41:23;2.87;87.32
67131;HTU21D;54051;53.464;49.532;2022-11-25T16:43:50;2.97;86.70
67131;HTU21D;54051;53.464;49.532;2022-11-25T16:46:17;3.00;86.05
67131;HTU21D;54051;53.464;49.532;2022-11-25T16:48:45;2.95;86.54
67131;HTU21D;54051;53.464;49.532;2022-11-25T16:51:16;2.99;86.51
67131;HTU21D;54051;53.464;49.532;2022-11-25T16:53:44;2.96;86.27
67131;HTU21D;54051;53.464;49.532;2022-11-25T16:56:26;2.96;87.00
67131;HTU21D;54051;53.464;49.532;2022-11-25T16:58:53;2.98;86.67
67131;HTU21D;54051;53.464;49.532;2022-11-25T17:01:22;2.95;86.27
67131;HTU21D;54051;53.464;49.532;2022-11-25T17:03:49;2.85;87.00
67131;HTU21D;54051;53.464;49.532;2022-11-25T17:06:27;2.83;87.33
67131;HTU21D;54051;53.464;49.532;2022-11-25T17:08:53;2.86;87.43
67131;HTU21D;54051;53.464;49.532;2022-11-25T17:11:32;2.88;87.30
67131;HTU21D;54051;53.464;49.532;2022-11-25T17:14:03;2.83;87.39
67131;HTU21D;54051;53.464;49.532;2022-11-25T17:16:30;2.74;87.99
67131;HTU21D;54051;53.464;49.532;2022-11-25T17:18:58;2.72;88.09
67131;HTU21D;54051;53.464;49.532;2022-11-25T17:21:25;2.72;88.08
67131;HTU21D;54051;53.464;49.532;2022-11-25T17:23:59;2.65;88.38
67131;HTU21D;54051;53.464;49.532;2022-11-25T17:26:38;2.66;88.77
67131;HTU21D;54051;53.464;49.532;2022-11-25T17:29:13;2.68;88.31
67131;HTU21D;54051;53.464;49.532;2022-11-25T17:31:40;2.59;88.41
67131;HTU21D;54051;53.464;49.532;2022-11-25T17:34:11;2.56;88.73
67131;HTU21D;54051;53.464;49.532;2022-11-25T17:36:38;2.59;88.99
67131;HTU21D;54051;53.464;49.532;2022-11-25T17:39:04;2.53;88.32
67131;HTU21D;54051;53.464;49.532;2022-11-25T17:41:30;2.49;88.51
67131;HTU21D;54051;53.464;49.532;2022-11-25T17:43:57;2.45;88.66
67131;HTU21D;54051;53.464;49.532;2022-11-25T17:46:23;2.47;89.10
67131;HTU21D;54051;53.464;49.532;2022-11-25T17:48:54;2.60;88.70
67131;HTU21D;54051;53.464;49.532;2022-11-25T17:51:20;2.60;88.36